createdAt,value
2017-09-23T00:00:45.368Z,19.47
2017-09-23T00:03:12.817Z,18.90
2017-09-23T00:05:41.084Z,18.70
2017-09-23T00:08:08.555Z,18.83
2017-09-23T00:10:36.021Z,18.80
2017-09-23T00:13:03.505Z,17.97
2017-09-23T00:15:30.978Z,19.00
2017-09-23T00:17:58.476Z,17.77
2017-09-23T00:20:25.956Z,19.90
2017-09-23T00:22:53.413Z,18.27
2017-09-23T00:25:20.895Z,17.03
2017-09-23T00:27:48.357Z,19.00
2017-09-23T00:30:15.938Z,17.53
2017-09-23T00:32:43.421Z,18.30
2017-09-23T00:35:10.885Z,17.97
2017-09-23T00:37:38.364Z,20.07
2017-09-23T00:40:05.824Z,18.57
2017-09-23T00:42:33.342Z,18.30
2017-09-23T00:45:01.573Z,20.73
2017-09-23T00:47:29.061Z,17.30
2017-09-23T00:49:56.534Z,17.90
2017-09-23T00:52:23.998Z,17.90
2017-09-23T00:54:51.474Z,16.93
2017-09-23T00:57:19.698Z,18.23
2017-09-23T00:59:47.242Z,17.23
2017-09-23T01:02:15.472Z,16.07
2017-09-23T01:04:42.921Z,16.00
2017-09-23T01:07:11.171Z,16.60
2017-09-23T01:09:38.647Z,17.90
2017-09-23T01:12:06.138Z,16.60
2017-09-23T01:14:34.393Z,16.13
2017-09-23T01:17:01.897Z,15.10
2017-09-23T01:19:29.372Z,16.60
2017-09-23T01:21:56.865Z,16.00
2017-09-23T01:24:24.337Z,15.27
2017-09-23T01:26:51.803Z,16.13
2017-09-23T01:29:20.076Z,15.50
2017-09-23T01:31:47.534Z,15.43
2017-09-23T01:34:15.008Z,14.87
2017-09-23T01:36:42.505Z,14.90
2017-09-23T01:39:09.979Z,15.60
2017-09-23T01:41:37.468Z,15.47
2017-09-23T01:44:04.927Z,14.57
2017-09-23T01:46:32.418Z,15.07
2017-09-23T01:49:00.003Z,15.07
2017-09-23T01:51:27.471Z,15.20
2017-09-23T01:53:54.954Z,14.03
2017-09-23T01:56:22.435Z,14.67
2017-09-23T01:58:49.928Z,13.73
2017-09-23T02:01:17.503Z,12.80
2017-09-23T02:03:44.959Z,14.00
2017-09-23T02:06:13.179Z,13.07
2017-09-23T02:08:40.660Z,13.60
2017-09-23T02:11:08.888Z,12.73
2017-09-23T02:13:36.472Z,13.63
2017-09-23T02:16:03.929Z,12.63
2017-09-23T02:18:31.434Z,12.93
2017-09-23T02:20:58.920Z,12.13
2017-09-23T02:23:26.394Z,13.37
2017-09-23T02:25:53.936Z,12.57
2017-09-23T02:28:21.398Z,12.53
2017-09-23T02:30:48.857Z,12.63
2017-09-23T02:33:16.365Z,12.07
2017-09-23T02:35:43.859Z,11.53
2017-09-23T02:38:11.334Z,12.13
2017-09-23T02:40:38.794Z,12.23
2017-09-23T02:43:06.271Z,11.43
2017-09-23T02:45:33.820Z,11.60
2017-09-23T02:48:01.307Z,10.37
2017-09-23T02:50:28.784Z,11.90
2017-09-23T02:52:56.464Z,11.47
2017-09-23T02:55:24.890Z,10.23
2017-09-23T02:57:52.384Z,10.93
2017-09-23T03:00:19.965Z,11.63
2017-09-23T03:02:47.422Z,10.87
2017-09-23T03:05:14.882Z,11.00
2017-09-23T03:07:43.132Z,10.23
2017-09-23T03:10:11.357Z,10.40
2017-09-23T03:12:38.946Z,10.40
2017-09-23T03:15:06.417Z,10.20
2017-09-23T03:17:33.996Z,11.13
2017-09-23T03:20:01.537Z,11.17
2017-09-23T03:22:29.002Z,10.90
2017-09-23T03:24:57.264Z,9.80
2017-09-23T03:27:24.730Z,10.67
2017-09-23T03:29:52.998Z,10.60
2017-09-23T03:32:21.221Z,11.60
2017-09-23T03:34:48.687Z,12.07
2017-09-23T03:37:16.166Z,10.50
2017-09-23T03:39:43.632Z,10.43
2017-09-23T03:42:11.895Z,11.27
2017-09-23T03:44:39.368Z,10.57
2017-09-23T03:47:06.836Z,10.63
2017-09-23T03:49:34.350Z,11.57
2017-09-23T03:52:01.824Z,11.20
2017-09-23T03:54:29.302Z,10.73
2017-09-23T03:56:56.770Z,11.30
2017-09-23T03:59:24.226Z,11.07
2017-09-23T04:01:51.717Z,10.60
2017-09-23T04:04:19.176Z,10.90
2017-09-23T04:06:47.423Z,10.73
2017-09-23T04:09:14.919Z,10.20
2017-09-23T04:11:42.422Z,9.93
2017-09-23T04:14:09.877Z,9.97
2017-09-23T04:16:38.112Z,10.83
2017-09-23T04:19:05.592Z,10.30
2017-09-23T04:21:33.117Z,10.47
2017-09-23T04:24:01.346Z,9.23
2017-09-23T04:26:28.818Z,10.70
2017-09-23T04:28:56.309Z,10.10
2017-09-23T04:31:23.787Z,8.83
2017-09-23T04:33:51.250Z,9.43
2017-09-23T04:36:18.739Z,9.17
2017-09-23T04:38:46.194Z,8.70
2017-09-23T04:41:13.688Z,9.53
2017-09-23T04:43:41.134Z,8.50
2017-09-23T04:46:09.373Z,8.67
2017-09-23T04:48:36.845Z,9.23
2017-09-23T04:51:04.309Z,9.77
2017-09-23T04:53:32.719Z,9.27
2017-09-23T04:56:00.957Z,9.63
2017-09-23T04:58:28.423Z,9.63
2017-09-23T05:00:55.927Z,10.30
2017-09-23T05:03:23.417Z,10.50
2017-09-23T05:05:50.877Z,10.60
2017-09-23T05:08:18.369Z,10.57
2017-09-23T05:10:46.634Z,9.70
2017-09-23T05:13:15.050Z,15.67
2017-09-23T05:15:42.511Z,11.23
2017-09-23T05:18:10.762Z,10.70
2017-09-23T05:20:38.321Z,9.50
2017-09-23T05:23:05.795Z,10.17
2017-09-23T05:25:34.786Z,9.90
2017-09-23T05:28:02.271Z,9.23
2017-09-23T05:30:30.614Z,9.83
2017-09-23T05:32:58.105Z,10.33
2017-09-23T05:35:25.564Z,10.10
2017-09-23T05:37:53.053Z,9.20
2017-09-23T05:40:21.333Z,10.47
2017-09-23T05:42:49.634Z,9.67
2017-09-23T05:45:17.888Z,9.83
2017-09-23T05:47:45.362Z,11.73
2017-09-23T05:50:12.842Z,11.30
2017-09-23T05:52:40.324Z,11.20
2017-09-23T05:55:08.570Z,11.73
2017-09-23T05:57:36.832Z,12.97
2017-09-23T06:00:05.189Z,9.80
2017-09-23T06:02:33.440Z,10.50
2017-09-23T06:05:00.918Z,9.43
2017-09-23T06:07:28.411Z,9.97
2017-09-23T06:09:55.873Z,9.47
2017-09-23T06:12:23.322Z,9.73
2017-09-23T06:14:50.830Z,9.80
2017-09-23T06:17:18.300Z,9.10
2017-09-23T06:19:45.769Z,8.83
2017-09-23T06:22:13.453Z,8.63
2017-09-23T06:24:40.913Z,8.70
2017-09-23T06:27:09.161Z,9.30
2017-09-23T06:29:36.634Z,10.50
2017-09-23T06:32:04.082Z,8.00
2017-09-23T06:34:32.376Z,8.27
2017-09-23T06:36:59.838Z,9.30
2017-09-23T06:39:27.346Z,9.30
2017-09-23T06:41:54.937Z,8.40
2017-09-23T06:44:23.537Z,8.37
2017-09-23T06:46:51.007Z,7.50
2017-09-23T06:49:18.616Z,8.00
2017-09-23T06:51:46.970Z,8.70
2017-09-23T06:54:14.567Z,8.33
2017-09-23T06:56:42.017Z,7.30
2017-09-23T06:59:09.490Z,8.67
2017-09-23T07:01:36.965Z,8.67
2017-09-23T07:04:05.331Z,7.63
2017-09-23T07:06:32.958Z,8.90
2017-09-23T07:09:00.410Z,8.20
2017-09-23T07:11:28.005Z,8.10
2017-09-23T07:13:56.242Z,7.83
2017-09-23T07:16:23.712Z,8.53
2017-09-23T07:18:51.194Z,8.43
2017-09-23T07:21:18.641Z,8.90
2017-09-23T07:23:47.009Z,9.50
2017-09-23T07:26:14.475Z,9.33
2017-09-23T07:28:41.985Z,8.33
2017-09-23T07:31:10.151Z,8.87
2017-09-23T07:33:38.351Z,8.33
2017-09-23T07:36:05.838Z,8.80
2017-09-23T07:38:33.318Z,8.93
2017-09-23T07:41:00.808Z,9.07
2017-09-23T07:43:28.659Z,9.60
2017-09-23T07:45:56.279Z,9.43
2017-09-23T07:48:23.752Z,9.03
2017-09-23T07:50:51.226Z,8.80
2017-09-23T07:53:18.784Z,8.93
2017-09-23T07:55:46.429Z,8.60
2017-09-23T07:58:14.913Z,8.00
2017-09-23T08:00:42.369Z,9.30
2017-09-23T08:03:10.631Z,9.47
2017-09-23T08:05:38.094Z,8.50
2017-09-23T08:08:05.567Z,8.90
2017-09-23T08:10:33.213Z,9.20
2017-09-23T08:13:01.578Z,9.30
2017-09-23T08:15:29.036Z,10.03
2017-09-23T08:17:56.540Z,9.50
2017-09-23T08:20:24.051Z,11.27
2017-09-23T08:22:51.527Z,11.30
2017-09-23T08:25:18.999Z,10.83
2017-09-23T08:27:48.002Z,11.10
2017-09-23T08:30:16.397Z,11.00
2017-09-23T08:32:43.887Z,11.40
2017-09-23T08:35:12.136Z,11.27
2017-09-23T08:37:39.679Z,10.80
2017-09-23T08:40:07.165Z,12.97
2017-09-23T08:42:34.710Z,12.70
2017-09-23T08:45:02.209Z,12.17
2017-09-23T08:47:29.851Z,12.53
2017-09-23T08:49:58.084Z,12.80
2017-09-23T08:52:25.582Z,12.23
2017-09-23T08:54:53.042Z,11.83
2017-09-23T08:57:20.543Z,11.10
2017-09-23T08:59:48.005Z,12.10
2017-09-23T09:02:16.376Z,11.83
2017-09-23T09:04:43.873Z,12.80
2017-09-23T09:07:11.376Z,13.00
2017-09-23T09:09:38.985Z,13.50
2017-09-23T09:12:07.377Z,13.73
2017-09-23T09:14:35.003Z,14.03
2017-09-23T09:17:02.520Z,13.70
2017-09-23T09:19:29.984Z,14.57
2017-09-23T09:21:58.243Z,13.30
2017-09-23T09:24:25.706Z,13.73
2017-09-23T09:26:53.230Z,13.40
2017-09-23T09:29:20.713Z,13.60
2017-09-23T09:31:48.193Z,13.53
2017-09-23T09:34:15.681Z,13.13
2017-09-23T09:36:43.165Z,13.47
2017-09-23T09:39:10.653Z,15.67
2017-09-23T09:41:38.128Z,13.20
2017-09-23T09:44:05.586Z,14.70
2017-09-23T09:46:33.112Z,15.00
2017-09-23T09:49:01.352Z,15.97
2017-09-23T09:51:28.929Z,15.70
2017-09-23T09:53:56.462Z,16.10
2017-09-23T09:56:23.931Z,15.50
2017-09-23T09:58:51.430Z,16.17
2017-09-23T10:01:18.957Z,15.80
2017-09-23T10:03:46.488Z,15.00
2017-09-23T10:06:13.960Z,16.20
2017-09-23T10:08:41.427Z,14.90
2017-09-23T10:11:08.901Z,14.77
2017-09-23T10:13:40.256Z,16.37
2017-09-23T10:16:08.505Z,16.20
2017-09-23T10:18:36.036Z,15.07
2017-09-23T10:21:04.298Z,16.20
2017-09-23T10:23:31.774Z,14.60
2017-09-23T10:25:59.235Z,14.67
2017-09-23T10:28:27.283Z,13.23
2017-09-23T10:30:54.759Z,14.47
2017-09-23T10:33:22.341Z,14.20
2017-09-23T10:35:49.814Z,13.10
2017-09-23T10:38:17.286Z,14.47
2017-09-23T10:40:44.782Z,13.53
2017-09-23T10:43:12.260Z,13.57
2017-09-23T10:45:40.610Z,14.20
2017-09-23T10:48:08.083Z,14.27
2017-09-23T10:50:35.561Z,14.67
2017-09-23T10:53:03.077Z,14.43
2017-09-23T10:55:30.547Z,14.50
2017-09-23T10:57:58.059Z,16.00
2017-09-23T11:00:25.525Z,15.80
2017-09-23T11:02:53.019Z,14.67
2017-09-23T11:05:20.490Z,15.13
2017-09-23T11:07:47.963Z,15.30
2017-09-23T11:10:15.571Z,14.80
2017-09-23T11:12:43.077Z,16.67
2017-09-23T11:15:10.586Z,15.40
2017-09-23T11:17:38.046Z,17.27
2017-09-23T11:20:05.532Z,16.67
2017-09-23T11:22:33.195Z,18.77
2017-09-23T11:25:01.444Z,19.07
2017-09-23T11:27:28.970Z,18.30
2017-09-23T11:29:56.451Z,18.77
2017-09-23T11:32:23.959Z,19.77
2017-09-23T11:34:51.444Z,19.40
2017-09-23T11:37:19.065Z,19.10
2017-09-23T11:39:46.549Z,19.00
2017-09-23T11:42:14.048Z,20.70
2017-09-23T11:44:41.612Z,20.20
2017-09-23T11:47:09.077Z,20.10
2017-09-23T11:49:36.591Z,20.37
2017-09-23T11:52:04.065Z,18.90
2017-09-23T11:54:31.618Z,18.70
2017-09-23T11:56:59.883Z,19.03
2017-09-23T11:59:28.238Z,20.10
2017-09-23T12:01:55.791Z,19.50
2017-09-23T12:04:23.270Z,18.50
2017-09-23T12:06:51.540Z,18.57
2017-09-23T12:09:19.011Z,18.00
2017-09-23T12:11:46.473Z,18.43
2017-09-23T12:14:13.971Z,19.47
2017-09-23T12:16:41.440Z,18.53
2017-09-23T12:19:09.020Z,19.07
2017-09-23T12:21:36.521Z,18.43
2017-09-23T12:24:03.986Z,20.03
2017-09-23T12:26:31.521Z,19.07
2017-09-23T12:28:59.040Z,16.97
2017-09-23T12:31:26.534Z,17.00
2017-09-23T12:33:53.998Z,18.13
2017-09-23T12:36:21.458Z,17.70
2017-09-23T12:38:49.725Z,16.40
2017-09-23T12:41:17.208Z,16.57
2017-09-23T12:43:44.811Z,16.17
2017-09-23T12:46:12.280Z,17.70
2017-09-23T12:48:39.745Z,16.07
2017-09-23T12:51:07.242Z,16.00
2017-09-23T12:53:34.720Z,17.53
2017-09-23T12:56:02.379Z,16.10
2017-09-23T12:58:29.854Z,15.80
2017-09-23T13:00:57.322Z,16.63
2017-09-23T13:03:24.817Z,15.30
2017-09-23T13:05:52.316Z,17.67
2017-09-23T13:08:19.792Z,18.50
2017-09-23T13:10:47.287Z,18.10
2017-09-23T13:13:14.760Z,17.37
2017-09-23T13:15:42.248Z,17.50
2017-09-23T13:18:09.750Z,18.40
2017-09-23T13:20:37.250Z,18.40
2017-09-23T13:23:04.904Z,19.53
2017-09-23T13:25:32.407Z,17.03
2017-09-23T13:27:59.890Z,18.07
2017-09-23T13:30:27.397Z,16.60
2017-09-23T13:32:55.678Z,17.63
2017-09-23T13:35:23.163Z,17.40
2017-09-23T13:37:50.650Z,15.10
2017-09-23T13:40:18.947Z,15.87
2017-09-23T13:42:46.419Z,14.77
2017-09-23T13:45:13.884Z,15.47
2017-09-23T13:47:41.364Z,15.83
2017-09-23T13:50:08.867Z,17.00
2017-09-23T13:52:36.513Z,15.97
2017-09-23T13:55:04.005Z,16.10
2017-09-23T13:57:31.507Z,15.37
2017-09-23T13:59:59.748Z,14.63
2017-09-23T14:02:27.326Z,15.50
2017-09-23T14:04:54.800Z,14.27
2017-09-23T14:07:23.152Z,14.47
2017-09-23T14:09:50.616Z,15.07
2017-09-23T14:12:18.193Z,18.53
2017-09-23T14:14:45.641Z,16.30
2017-09-23T14:17:13.888Z,19.30
2017-09-23T14:19:42.145Z,16.30
2017-09-23T14:22:10.419Z,16.97
2017-09-23T14:24:37.985Z,16.27
2017-09-23T14:27:05.442Z,16.17
2017-09-23T14:29:33.035Z,16.80
2017-09-23T14:32:00.528Z,17.30
2017-09-23T14:34:28.007Z,18.70
2017-09-23T14:36:55.496Z,19.77
2017-09-23T14:39:23.025Z,19.87
2017-09-23T14:41:50.498Z,19.77
2017-09-23T14:44:18.027Z,22.87
2017-09-23T14:46:46.348Z,22.80
2017-09-23T14:49:13.853Z,22.20
2017-09-23T14:51:41.323Z,23.13
2017-09-23T14:54:08.799Z,21.50
2017-09-23T14:56:36.315Z,20.93
2017-09-23T14:59:03.864Z,20.80
2017-09-23T15:01:31.322Z,20.27
2017-09-23T15:03:58.791Z,21.00
2017-09-23T15:06:26.320Z,22.73
2017-09-23T15:08:53.786Z,22.57
2017-09-23T15:11:21.272Z,20.80
2017-09-23T15:13:48.731Z,20.50
2017-09-23T15:16:16.353Z,19.50
2017-09-23T15:18:43.829Z,22.10
2017-09-23T15:21:11.313Z,21.97
2017-09-23T15:23:38.806Z,22.50
2017-09-23T15:26:06.287Z,24.60
2017-09-23T15:28:33.813Z,22.40
2017-09-23T15:31:01.302Z,21.20
2017-09-23T15:33:28.897Z,20.00
2017-09-23T15:35:56.350Z,22.33
2017-09-23T15:38:23.822Z,20.83
2017-09-23T15:40:51.345Z,20.60
2017-09-23T15:43:19.575Z,19.53
2017-09-23T15:45:47.173Z,18.43
2017-09-23T15:48:14.661Z,19.87
2017-09-23T15:50:42.193Z,21.10
2017-09-23T15:53:10.462Z,21.80
2017-09-23T15:55:37.993Z,21.50
2017-09-23T15:58:05.671Z,22.70
2017-09-23T16:00:33.922Z,24.07
2017-09-23T16:03:01.396Z,23.47
2017-09-23T16:05:28.890Z,23.30
2017-09-23T16:07:56.371Z,23.03
2017-09-23T16:10:23.876Z,21.77
2017-09-23T16:12:51.354Z,22.20
2017-09-23T16:15:18.859Z,21.93
2017-09-23T16:17:46.377Z,25.23
2017-09-23T16:20:13.839Z,22.60
2017-09-23T16:22:41.357Z,24.60
2017-09-23T16:25:08.838Z,25.93
2017-09-23T16:27:36.294Z,25.00
2017-09-23T16:30:03.788Z,26.33
2017-09-23T16:32:31.254Z,25.80
2017-09-23T16:34:58.771Z,26.10
2017-09-23T16:37:26.239Z,25.80
2017-09-23T16:39:53.708Z,25.40
2017-09-23T16:42:21.215Z,25.97
2017-09-23T16:44:48.693Z,25.70
2017-09-23T16:47:16.247Z,25.93
2017-09-23T16:49:43.715Z,26.30
2017-09-23T16:52:11.955Z,24.50
2017-09-23T16:54:39.592Z,25.77
2017-09-23T16:57:07.083Z,24.60
2017-09-23T16:59:34.601Z,26.00
2017-09-23T17:02:02.131Z,26.40
2017-09-23T17:04:30.457Z,24.77
2017-09-23T17:06:57.991Z,25.37
2017-09-23T17:09:25.463Z,25.93
2017-09-23T17:11:52.997Z,25.33
2017-09-23T17:14:20.511Z,26.00
2017-09-23T17:16:48.866Z,26.50
2017-09-23T17:19:17.199Z,27.80
2017-09-23T17:21:44.673Z,26.47
2017-09-23T17:24:12.175Z,27.30
2017-09-23T17:26:39.740Z,28.33
2017-09-23T17:29:07.559Z,26.20
2017-09-23T17:31:35.344Z,25.67
2017-09-23T17:34:02.886Z,28.17
2017-09-23T17:36:30.471Z,28.40
2017-09-23T17:38:58.772Z,28.83
2017-09-23T17:41:26.247Z,30.10
2017-09-23T17:43:53.908Z,29.47
2017-09-23T17:46:21.440Z,29.33
2017-09-23T17:48:49.734Z,29.73
2017-09-23T17:51:18.000Z,30.00
2017-09-23T17:53:45.490Z,33.90
2017-09-23T17:56:12.997Z,32.50
2017-09-23T17:58:41.266Z,31.60
2017-09-23T18:01:08.996Z,31.50
2017-09-23T18:03:36.565Z,33.10
2017-09-23T18:06:04.875Z,33.50
2017-09-23T18:08:33.607Z,31.30
2017-09-23T18:11:01.102Z,32.53
2017-09-23T18:13:28.649Z,36.03
2017-09-23T18:15:56.914Z,34.40
2017-09-23T18:18:24.434Z,32.53
2017-09-23T18:20:52.685Z,33.87
2017-09-23T18:23:20.226Z,34.23
2017-09-23T18:25:47.762Z,32.73
2017-09-23T18:28:15.421Z,35.10
2017-09-23T18:30:42.949Z,30.93
2017-09-23T18:33:10.439Z,33.40
2017-09-23T18:35:38.038Z,33.20
2017-09-23T18:38:06.347Z,35.40
2017-09-23T18:40:34.602Z,33.67
2017-09-23T18:43:02.116Z,32.10
2017-09-23T18:45:29.605Z,34.13
2017-09-23T18:47:57.222Z,33.57
2017-09-23T18:50:25.486Z,31.23
2017-09-23T18:52:52.992Z,33.07
2017-09-23T18:55:20.499Z,33.87
2017-09-23T18:57:48.000Z,32.40
2017-09-23T19:00:15.514Z,29.90
2017-09-23T19:02:43.052Z,31.73
2017-09-23T19:05:10.850Z,30.80
2017-09-23T19:07:38.488Z,31.40
2017-09-23T19:10:06.791Z,30.17
2017-09-23T19:12:35.056Z,31.47
2017-09-23T19:15:02.561Z,31.07
2017-09-23T19:17:30.091Z,31.63
2017-09-23T19:19:57.570Z,32.73
2017-09-23T19:22:25.055Z,30.17
2017-09-23T19:24:52.721Z,34.07
2017-09-23T19:27:20.206Z,33.10
2017-09-23T19:29:49.275Z,33.37
2017-09-23T19:32:16.877Z,31.30
2017-09-23T19:34:44.365Z,32.30
2017-09-23T19:37:11.900Z,32.70
2017-09-23T19:39:39.422Z,31.57
2017-09-23T19:42:07.709Z,30.57
2017-09-23T19:44:35.262Z,30.33
2017-09-23T19:47:02.884Z,30.20
2017-09-23T19:49:30.387Z,32.33
2017-09-23T19:51:58.850Z,30.83
2017-09-23T19:54:26.458Z,31.83
2017-09-23T19:56:54.717Z,32.47
2017-09-23T19:59:22.224Z,32.30
2017-09-23T20:01:49.734Z,30.33
2017-09-23T20:04:17.986Z,31.50
2017-09-23T20:06:45.491Z,31.73
2017-09-23T20:09:12.976Z,30.93
2017-09-23T20:11:40.470Z,32.30
2017-09-23T20:14:07.958Z,32.20
2017-09-23T20:16:35.480Z,33.03
2017-09-23T20:19:02.971Z,34.90
2017-09-23T20:21:30.577Z,32.90
2017-09-23T20:23:58.089Z,33.93
2017-09-23T20:26:25.662Z,33.30
2017-09-23T20:28:53.165Z,34.23
2017-09-23T20:31:21.425Z,33.30
2017-09-23T20:33:49.050Z,33.17
2017-09-23T20:36:16.530Z,33.60
2017-09-23T20:38:44.026Z,34.20
2017-09-23T20:41:12.284Z,34.73
2017-09-23T20:43:39.867Z,34.67
2017-09-23T20:46:07.364Z,36.97
2017-09-23T20:48:34.857Z,36.73
2017-09-23T20:51:02.461Z,35.77
2017-09-23T20:53:30.700Z,36.83
2017-09-23T20:55:58.197Z,35.37
2017-09-23T20:58:25.714Z,35.03
2017-09-23T21:00:53.201Z,36.57
2017-09-23T21:03:20.817Z,36.50
2017-09-23T21:05:48.282Z,36.60
2017-09-23T21:08:16.547Z,36.37
2017-09-23T21:10:44.047Z,38.33
2017-09-23T21:13:11.525Z,37.13
2017-09-23T21:15:39.031Z,38.07
2017-09-23T21:18:07.271Z,38.43
2017-09-23T21:20:35.089Z,33.40
2017-09-23T21:23:02.565Z,37.93
2017-09-23T21:25:30.033Z,36.53
2017-09-23T21:27:57.541Z,37.80
2017-09-23T21:30:25.030Z,36.00
2017-09-23T21:32:52.545Z,38.40
2017-09-23T21:35:20.035Z,38.53
2017-09-23T21:37:47.532Z,39.00
2017-09-23T21:40:15.014Z,37.90
2017-09-23T21:42:42.511Z,36.03
2017-09-23T21:45:10.025Z,34.60
2017-09-23T21:47:37.544Z,35.50
2017-09-23T21:50:05.073Z,35.93
2017-09-23T21:52:32.589Z,37.00
2017-09-23T21:55:00.090Z,40.37
2017-09-23T21:57:28.369Z,37.90
2017-09-23T21:59:55.856Z,39.93
2017-09-23T22:02:23.382Z,38.60
2017-09-23T22:04:50.897Z,40.00
2017-09-23T22:07:18.404Z,39.80
2017-09-23T22:09:45.919Z,36.57
2017-09-23T22:12:13.405Z,38.93
2017-09-23T22:14:41.022Z,38.67
2017-09-23T22:17:08.538Z,41.43
2017-09-23T22:19:36.221Z,40.33
2017-09-23T22:22:03.731Z,42.70
2017-09-23T22:24:32.052Z,46.60
2017-09-23T22:27:00.350Z,42.10
2017-09-23T22:29:28.595Z,41.87
2017-09-23T22:31:56.113Z,42.30
2017-09-23T22:34:23.612Z,40.90
2017-09-23T22:36:51.088Z,41.43
2017-09-23T22:39:18.737Z,40.57
2017-09-23T22:41:46.233Z,41.10
2017-09-23T22:44:13.734Z,45.10
2017-09-23T22:46:41.346Z,45.47
2017-09-23T22:49:09.586Z,41.60
2017-09-23T22:51:37.100Z,41.60
2017-09-23T22:54:04.725Z,42.17
2017-09-23T22:56:33.014Z,42.17
2017-09-23T22:59:00.502Z,43.73
2017-09-23T23:01:28.913Z,43.50
2017-09-23T23:03:57.155Z,44.43
2017-09-23T23:06:24.624Z,43.17
2017-09-23T23:08:52.230Z,43.63
2017-09-23T23:11:19.724Z,42.90
2017-09-23T23:13:47.210Z,43.77
2017-09-23T23:16:14.829Z,42.20
2017-09-23T23:18:42.314Z,44.00
2017-09-23T23:21:09.799Z,41.30
2017-09-23T23:23:38.172Z,39.80
2017-09-23T23:26:05.640Z,41.73
2017-09-23T23:28:33.217Z,40.60
2017-09-23T23:31:00.717Z,40.10
2017-09-23T23:33:28.194Z,38.57
2017-09-23T23:35:55.702Z,38.27
2017-09-23T23:38:23.191Z,36.60
2017-09-23T23:40:50.673Z,33.47
2017-09-23T23:43:18.201Z,33.10
2017-09-23T23:45:45.679Z,34.30
2017-09-23T23:48:13.178Z,32.10
2017-09-23T23:50:40.665Z,31.87
2017-09-23T23:53:08.277Z,34.17
2017-09-23T23:55:35.793Z,33.83
2017-09-23T23:58:03.283Z,31.00
